Time;durP1;ratioP1;P1;durP2;ratioP2;P2;SDS_P1;SDS_P2;PMS_P1;PMS_P2;Temp;Humidity;BMP_temperature;BMP_pressure;BME280_temperature;BME280_humidity;BME280_pressure;Samples;Min_cycle;Max_cycle;Signal;HPM_P1;HPM_P2
2022/03/09 00:02:17;;;;;;;13.80;9.70;;;4.90;79.60;;;;;;5080382;28;20388;-40
2022/03/09 00:04:43;;;;;;;13.23;9.43;;;4.90;79.80;;;;;;5067344;28;20024;-43
2022/03/09 00:07:09;;;;;;;11.25;8.00;;;4.90;79.80;;;;;;5079286;28;20070;-40
2022/03/09 00:09:34;;;;;;;11.02;8.02;;;4.80;79.90;;;;;;5068032;28;20036;-40
2022/03/09 00:12:00;;;;;;;11.77;8.02;;;4.80;79.90;;;;;;5076556;28;20676;-41
2022/03/09 00:14:26;;;;;;;11.68;8.65;;;4.80;80.00;;;;;;5069706;28;20047;-41
2022/03/09 00:16:51;;;;;;;13.00;8.30;;;4.80;80.20;;;;;;5074841;28;20455;-42
2022/03/09 00:19:17;;;;;;;12.60;8.43;;;4.80;80.20;;;;;;5073628;28;20028;-42
2022/03/09 00:21:42;;;;;;;15.00;8.95;;;4.80;80.20;;;;;;5070718;28;20066;-41
2022/03/09 00:24:08;;;;;;;10.75;7.60;;;4.80;80.20;;;;;;5075706;28;20064;-42
2022/03/09 00:26:34;;;;;;;11.75;8.48;;;4.80;80.30;;;;;;5068623;28;20025;-42
2022/03/09 00:28:59;;;;;;;9.20;6.95;;;4.70;80.20;;;;;;5077536;28;20024;-43
2022/03/09 00:31:25;;;;;;;11.52;6.88;;;4.70;80.20;;;;;;5068569;28;20036;-41
2022/03/09 00:33:50;;;;;;;12.63;8.40;;;4.70;80.30;;;;;;5077941;28;20028;-43
2022/03/09 00:36:16;;;;;;;12.85;7.55;;;4.70;80.40;;;;;;5067001;28;20032;-42
2022/03/09 00:38:41;;;;;;;10.10;7.28;;;4.60;80.30;;;;;;5078866;28;20028;-43
2022/03/09 00:41:07;;;;;;;8.88;6.63;;;4.60;80.40;;;;;;5067270;28;20077;-41
2022/03/09 00:43:33;;;;;;;10.07;7.05;;;4.60;80.50;;;;;;5079014;28;20491;-42
2022/03/09 00:45:58;;;;;;;9.18;7.30;;;4.60;80.60;;;;;;5066884;28;20380;-41
2022/03/09 00:48:24;;;;;;;10.68;7.13;;;4.60;80.60;;;;;;5073579;28;20107;-42
2022/03/09 00:50:49;;;;;;;11.70;7.70;;;4.50;80.60;;;;;;5066065;28;20373;-43
2022/03/09 00:53:15;;;;;;;14.32;9.15;;;4.50;80.80;;;;;;5075605;28;20557;-42
2022/03/09 00:55:40;;;;;;;11.15;8.13;;;4.40;80.90;;;;;;5070108;28;20052;-42
2022/03/09 00:58:06;;;;;;;11.85;8.25;;;4.40;81.00;;;;;;5072537;28;20475;-40
2022/03/09 01:00:32;;;;;;;11.73;7.68;;;4.40;81.10;;;;;;5072729;28;20507;-41
2022/03/09 01:02:58;;;;;;;10.75;8.10;;;4.30;81.10;;;;;;5069057;28;20039;-41
2022/03/09 01:05:23;;;;;;;10.95;8.25;;;4.30;81.30;;;;;;5076097;28;20250;-43
2022/03/09 01:07:49;;;;;;;11.90;7.80;;;4.30;81.30;;;;;;5067495;28;20032;-41
2022/03/09 01:10:15;;;;;;;11.57;7.72;;;4.30;81.40;;;;;;5077616;28;20116;-43
2022/03/09 01:12:40;;;;;;;12.70;8.43;;;4.20;82.00;;;;;;5067858;28;20031;-42
2022/03/09 01:15:07;;;;;;;13.30;8.98;;;4.20;81.40;;;;;;5077586;28;20036;-41
2022/03/09 01:17:33;;;;;;;11.85;8.18;;;4.20;81.50;;;;;;5065327;28;20020;-42
2022/03/09 01:19:59;;;;;;;12.07;7.97;;;4.20;81.60;;;;;;5078679;28;20709;-42
2022/03/09 01:22:24;;;;;;;10.45;7.72;;;4.10;81.60;;;;;;5066658;28;20086;-42
2022/03/09 01:24:50;;;;;;;11.43;8.07;;;4.10;81.70;;;;;;5077390;28;20418;-42
2022/03/09 01:27:15;;;;;;;10.15;7.85;;;4.10;81.80;;;;;;5066890;28;20448;-41
2022/03/09 01:29:41;;;;;;;11.30;8.32;;;4.10;81.80;;;;;;5076205;28;20027;-41
2022/03/09 01:32:07;;;;;;;12.02;8.73;;;4.10;81.90;;;;;;5067437;28;20039;-41
2022/03/09 01:34:32;;;;;;;12.48;8.88;;;4.00;81.90;;;;;;5073776;28;20024;-41
2022/03/09 01:36:58;;;;;;;13.82;9.25;;;4.00;82.00;;;;;;5070203;28;20144;-42
2022/03/09 01:39:23;;;;;;;12.27;8.80;;;4.00;82.20;;;;;;5070179;28;20024;-42
2022/03/09 01:41:49;;;;;;;11.32;8.30;;;4.00;82.10;;;;;;5073022;28;20784;-41
2022/03/09 01:44:17;;;;;;;11.57;8.57;;;4.00;82.10;;;;;;5068857;28;20035;-42
2022/03/09 01:46:50;;;;;;;13.20;9.27;;;3.90;82.20;;;;;;5074926;28;20032;-43
2022/03/09 01:49:16;;;;;;;11.25;8.45;;;3.90;82.20;;;;;;5075518;28;20032;-41
2022/03/09 01:51:43;;;;;;;11.75;8.50;;;3.90;82.30;;;;;;5073661;28;20806;-41
2022/03/09 01:54:10;;;;;;;12.88;8.30;;;3.90;82.30;;;;;;5084931;28;20040;-41
2022/03/09 01:56:37;;;;;;;11.98;9.15;;;3.90;82.40;;;;;;5074267;28;20048;-41
2022/03/09 01:59:04;;;;;;;13.23;8.25;;;3.80;82.40;;;;;;5084862;28;20024;-41
2022/03/09 02:01:30;;;;;;;12.30;8.63;;;3.80;82.40;;;;;;5074037;28;20032;-39
2022/03/09 02:03:57;;;;;;;10.13;6.97;;;3.80;82.50;;;;;;5085743;28;20036;-42
2022/03/09 02:06:23;;;;;;;11.65;7.88;;;3.80;82.60;;;;;;5072098;28;20064;-40
2022/03/09 02:11:34;;;;;;;10.65;8.27;;;3.80;82.70;;;;;;5073179;28;20090;-41
2022/03/09 02:14:00;;;;;;;12.05;7.90;;;3.70;82.80;;;;;;5084787;28;20034;-42
2022/03/09 02:16:25;;;;;;;10.82;8.00;;;3.70;82.80;;;;;;5074037;28;20033;-40
2022/03/09 02:18:51;;;;;;;10.57;7.50;;;3.70;82.90;;;;;;5085119;28;20423;-40
2022/03/09 02:21:19;;;;;;;12.52;7.68;;;3.70;83.00;;;;;;5075631;28;20466;-40
2022/03/09 02:23:45;;;;;;;11.65;7.45;;;3.60;83.00;;;;;;5082718;28;20533;-43
2022/03/09 02:26:11;;;;;;;11.65;7.57;;;3.60;83.30;;;;;;5078437;28;20107;-41
2022/03/09 02:28:45;;;;;;;10.57;7.20;;;3.60;83.30;;;;;;5079347;28;20757;-40
2022/03/09 02:31:11;;;;;;;11.63;7.53;;;3.50;83.40;;;;;;5080225;28;20037;-41
2022/03/09 02:33:37;;;;;;;9.68;7.30;;;3.50;83.40;;;;;;5078583;28;20054;-41
2022/03/09 02:36:03;;;;;;;10.45;7.53;;;3.50;83.60;;;;;;5081765;28;20024;-41
2022/03/09 02:38:29;;;;;;;11.98;7.72;;;3.40;83.60;;;;;;5076556;28;20050;-40
2022/03/09 02:40:55;;;;;;;10.02;7.03;;;3.40;83.70;;;;;;5083468;28;20698;-41
2022/03/09 02:43:21;;;;;;;11.80;7.57;;;3.40;83.70;;;;;;5074238;28;20475;-42
2022/03/09 02:45:46;;;;;;;9.93;7.00;;;3.40;83.70;;;;;;5084064;28;20028;-41
2022/03/09 02:48:12;;;;;;;12.25;8.13;;;3.40;83.80;;;;;;5073749;28;20035;-42
2022/03/09 02:50:37;;;;;;;10.77;7.45;;;3.40;83.90;;;;;;5086285;28;20032;-43
2022/03/09 02:53:03;;;;;;;12.13;8.25;;;3.30;84.00;;;;;;5076654;28;20502;-42
2022/03/09 02:55:28;;;;;;;12.10;8.43;;;3.30;84.20;;;;;;5088546;28;20059;-41
2022/03/09 02:57:54;;;;;;;11.27;8.30;;;3.30;84.30;;;;;;5076140;28;20112;-41
2022/03/09 03:00:19;;;;;;;10.10;7.70;;;3.20;84.30;;;;;;5089610;28;20028;-42
2022/03/09 03:02:45;;;;;;;13.95;8.02;;;3.20;84.30;;;;;;5077544;28;20115;-41
2022/03/09 03:05:10;;;;;;;11.60;8.00;;;3.20;84.30;;;;;;5086862;28;20024;-41
2022/03/09 03:07:36;;;;;;;12.85;8.70;;;3.20;84.40;;;;;;5081710;28;20120;-41
2022/03/09 03:10:08;;;;;;;12.30;7.90;;;3.20;84.40;;;;;;5082851;28;20063;-42
2022/03/09 03:12:34;;;;;;;10.90;7.22;;;3.20;84.40;;;;;;5083727;28;20276;-42
2022/03/09 03:14:59;;;;;;;10.95;7.72;;;3.20;84.40;;;;;;5082158;28;20677;-41
2022/03/09 03:17:25;;;;;;;11.93;7.95;;;3.20;84.50;;;;;;5085479;28;20901;-41
2022/03/09 03:19:50;;;;;;;10.98;8.00;;;3.10;84.50;;;;;;5078941;28;20035;-40
2022/03/09 03:22:16;;;;;;;9.55;6.78;;;3.10;84.60;;;;;;5087278;28;20483;-41
2022/03/09 03:24:42;;;;;;;11.45;7.47;;;3.10;84.60;;;;;;5076139;28;20031;-44
2022/03/09 03:27:07;;;;;;;9.05;6.70;;;3.10;84.70;;;;;;5087448;28;20030;-41
2022/03/09 03:29:33;;;;;;;11.82;7.72;;;3.10;84.70;;;;;;5077078;28;20028;-43
2022/03/09 03:31:58;;;;;;;9.35;6.57;;;3.00;84.80;;;;;;5087950;28;20040;-43
2022/03/09 03:34:24;;;;;;;8.88;6.95;;;3.00;84.90;;;;;;5076153;28;20028;-41
2022/03/09 03:36:49;;;;;;;10.20;7.25;;;3.00;84.90;;;;;;5088406;28;20111;-42
2022/03/09 03:39:15;;;;;;;11.75;7.32;;;3.00;85.00;;;;;;5075207;28;20104;-39
2022/03/09 03:41:41;;;;;;;12.50;8.10;;;2.90;85.10;;;;;;5088217;28;20546;-37
2022/03/09 03:44:09;;;;;;;10.98;7.22;;;2.90;85.20;;;;;;5078230;28;20128;-42
2022/03/09 03:46:35;;;;;;;14.73;8.30;;;2.90;85.20;;;;;;5084764;28;20529;-41
2022/03/09 03:49:00;;;;;;;9.85;7.80;;;2.90;85.30;;;;;;5080515;28;20013;-38
2022/03/09 03:51:26;;;;;;;9.93;6.60;;;2.90;85.40;;;;;;5082602;28;20150;-40
2022/03/09 03:53:51;;;;;;;12.95;7.40;;;2.90;85.40;;;;;;5082621;28;20032;-40
2022/03/09 03:56:17;;;;;;;11.35;7.53;;;2.80;85.40;;;;;;5080915;28;20112;-39
2022/03/09 03:58:42;;;;;;;13.18;7.05;;;2.80;85.40;;;;;;5084657;28;20024;-42
2022/03/09 04:01:08;;;;;;;12.73;7.97;;;2.80;85.30;;;;;;5077602;28;20487;-42
2022/03/09 04:03:36;;;;;;;12.43;8.23;;;2.80;85.50;;;;;;5086377;28;20035;-43
2022/03/09 04:06:02;;;;;;;10.02;7.38;;;2.80;85.60;;;;;;5075487;28;20028;-42
2022/03/09 04:08:28;;;;;;;10.13;7.18;;;2.80;85.50;;;;;;5086529;28;20020;-41
2022/03/09 04:10:53;;;;;;;12.52;7.40;;;2.80;85.50;;;;;;5075999;28;20028;-41
2022/03/09 04:13:19;;;;;;;9.68;7.35;;;2.80;85.50;;;;;;5087501;28;20034;-41
2022/03/09 04:15:44;;;;;;;12.63;9.05;;;2.80;85.60;;;;;;5074177;28;20519;-40
2022/03/09 04:18:10;;;;;;;14.85;10.77;;;2.80;85.60;;;;;;5087917;28;20107;-41
2022/03/09 04:20:35;;;;;;;13.38;9.52;;;2.80;85.70;;;;;;5074480;28;20025;-42
2022/03/09 04:23:01;;;;;;;14.13;9.55;;;2.80;85.70;;;;;;5087272;28;20020;-42
2022/03/09 04:25:27;;;;;;;16.02;10.10;;;2.80;85.80;;;;;;5078051;28;20169;-42
2022/03/09 04:27:53;;;;;;;15.70;10.15;;;2.70;85.90;;;;;;5083996;28;20085;-41
2022/03/09 04:30:18;;;;;;;15.15;9.98;;;2.70;85.90;;;;;;5080499;28;20036;-41
2022/03/09 04:32:44;;;;;;;14.93;10.00;;;2.70;86.00;;;;;;5081785;28;20032;-41
2022/03/09 04:35:10;;;;;;;12.77;9.05;;;2.70;86.70;;;;;;5082580;28;20135;-41
2022/03/09 04:37:36;;;;;;;12.63;8.32;;;2.70;86.10;;;;;;5078852;28;20046;-41
2022/03/09 04:40:03;;;;;;;17.30;8.82;;;2.70;86.20;;;;;;5084719;28;20552;-41
2022/03/09 04:42:30;;;;;;;16.38;9.20;;;2.70;86.30;;;;;;5076630;28;20020;-41
2022/03/09 04:44:56;;;;;;;12.23;8.25;;;2.70;86.30;;;;;;5085263;28;20051;-40
2022/03/09 04:47:21;;;;;;;14.15;8.80;;;2.70;86.40;;;;;;5075615;28;20492;-41
2022/03/09 04:49:47;;;;;;;14.13;8.70;;;2.70;86.50;;;;;;5085545;28;20012;-42
2022/03/09 04:52:13;;;;;;;14.27;8.23;;;2.70;86.50;;;;;;5075097;28;20141;-41
2022/03/09 04:54:39;;;;;;;11.02;7.65;;;2.70;86.50;;;;;;5085968;28;20028;-39
2022/03/09 04:57:04;;;;;;;10.68;7.32;;;2.70;86.50;;;;;;5074586;28;20055;-41
2022/03/09 04:59:30;;;;;;;11.82;8.25;;;2.70;86.50;;;;;;5087277;28;20079;-41
2022/03/09 05:01:56;;;;;;;9.88;7.22;;;2.70;86.50;;;;;;5073859;28;20017;-40
2022/03/09 05:04:21;;;;;;;10.50;7.07;;;2.70;86.50;;;;;;5086974;28;20163;-42
2022/03/09 05:06:47;;;;;;;9.82;7.00;;;2.70;86.50;;;;;;5076941;28;20563;-43
2022/03/09 05:09:12;;;;;;;9.48;7.05;;;2.70;86.40;;;;;;5083144;28;20098;-40
2022/03/09 05:11:38;;;;;;;10.32;6.85;;;2.70;86.40;;;;;;5079400;28;20444;-42
2022/03/09 05:14:04;;;;;;;10.63;6.60;;;2.70;86.50;;;;;;5079849;28;20028;-41
2022/03/09 05:16:29;;;;;;;9.13;6.82;;;2.60;86.50;;;;;;5082108;28;20024;-41
2022/03/09 05:18:55;;;;;;;10.35;6.38;;;2.60;86.60;;;;;;5077264;28;20042;-42
2022/03/09 05:21:20;;;;;;;11.95;7.88;;;2.60;86.50;;;;;;5085183;28;20063;-41
2022/03/09 05:23:46;;;;;;;10.50;7.25;;;2.60;86.60;;;;;;5074529;28;20027;-42
2022/03/09 05:26:11;;;;;;;9.57;6.65;;;2.60;86.60;;;;;;5085271;28;20032;-39
2022/03/09 05:28:37;;;;;;;10.00;6.65;;;2.60;86.70;;;;;;5074720;28;20016;-44
2022/03/09 05:31:03;;;;;;;9.77;6.45;;;2.50;86.70;;;;;;5085748;28;20558;-42
2022/03/09 05:33:28;;;;;;;10.93;7.35;;;2.50;86.80;;;;;;5078534;28;20484;-42
2022/03/09 05:35:54;;;;;;;10.23;7.38;;;2.50;86.80;;;;;;5065747;28;20036;-41
2022/03/09 05:38:20;;;;;;;10.32;7.32;;;2.50;87.00;;;;;;5078195;28;20023;-43
2022/03/09 05:40:45;;;;;;;11.85;7.35;;;2.50;87.10;;;;;;5065574;28;20032;-40
2022/03/09 05:43:11;;;;;;;10.77;6.65;;;2.50;87.00;;;;;;5076937;28;20038;-40
2022/03/09 05:45:36;;;;;;;10.88;7.40;;;2.50;87.10;;;;;;5066800;28;20380;-42
2022/03/09 05:48:02;;;;;;;11.85;7.88;;;2.40;87.20;;;;;;5072863;28;20024;-41
2022/03/09 05:50:27;;;;;;;12.30;7.95;;;2.50;87.30;;;;;;5066396;28;20048;-41
2022/03/09 05:52:53;;;;;;;9.88;7.60;;;2.40;87.30;;;;;;5070116;28;20071;-41
2022/03/09 05:55:18;;;;;;;10.75;7.43;;;2.40;87.30;;;;;;5072629;28;20063;-41
2022/03/09 05:57:44;;;;;;;12.75;7.95;;;2.40;87.40;;;;;;5068284;28;20028;-40
2022/03/09 06:00:10;;;;;;;11.77;8.20;;;2.40;87.50;;;;;;5074855;28;20047;-42
2022/03/09 06:02:36;;;;;;;11.50;7.40;;;2.40;87.60;;;;;;5066651;28;20019;-41
2022/03/09 06:05:01;;;;;;;12.10;7.88;;;2.40;87.70;;;;;;5076138;28;20032;-41
2022/03/09 06:07:27;;;;;;;10.18;7.38;;;2.40;87.70;;;;;;5066947;28;20027;-41
2022/03/09 06:09:52;;;;;;;10.35;7.32;;;2.40;87.90;;;;;;5076522;28;20380;-40
2022/03/09 06:12:18;;;;;;;9.73;7.65;;;2.40;87.90;;;;;;5065637;28;20029;-42
2022/03/09 06:14:44;;;;;;;8.32;6.45;;;2.40;87.90;;;;;;5077817;28;20031;-41
2022/03/09 06:17:10;;;;;;;10.55;7.50;;;2.30;87.80;;;;;;5065826;28;20070;-41
2022/03/09 06:19:35;;;;;;;9.38;6.57;;;2.30;87.80;;;;;;5077483;28;20024;-41
2022/03/09 06:22:01;;;;;;;11.20;7.53;;;2.30;87.90;;;;;;5065662;28;20369;-43
2022/03/09 06:24:26;;;;;;;9.68;7.15;;;2.30;88.10;;;;;;5076613;28;20028;-42
2022/03/09 06:26:53;;;;;;;14.68;8.30;;;2.30;88.30;;;;;;5071252;28;20030;-42
2022/03/09 06:29:19;;;;;;;11.68;7.55;;;2.30;88.50;;;;;;5077070;28;20134;-42
2022/03/09 06:31:48;;;;;;;12.75;7.68;;;2.30;88.60;;;;;;5073962;28;20881;-43
2022/03/09 06:34:13;;;;;;;11.82;7.10;;;2.30;88.50;;;;;;5073969;28;20024;-43
2022/03/09 06:36:43;;;;;;;11.55;8.48;;;2.30;88.50;;;;;;5076842;28;20036;-42
2022/03/09 06:39:09;;;;;;;12.05;7.72;;;2.30;88.60;;;;;;5072598;28;20028;-40
2022/03/09 06:41:35;;;;;;;10.95;8.38;;;2.30;88.70;;;;;;5077750;28;20039;-42
2022/03/09 06:44:00;;;;;;;9.48;6.88;;;2.30;88.80;;;;;;5070636;28;20021;-39
2022/03/09 06:46:26;;;;;;;9.68;7.30;;;2.40;88.80;;;;;;5080643;28;20042;-40
2022/03/09 06:48:51;;;;;;;11.70;7.63;;;2.40;88.90;;;;;;5074771;28;20117;-40
2022/03/09 06:51:17;;;;;;;13.85;9.43;;;2.40;89.00;;;;;;5078736;28;20036;-39
2022/03/09 06:53:44;;;;;;;12.02;8.32;;;2.40;89.00;;;;;;5077156;28;20119;-43
2022/03/09 06:56:10;;;;;;;14.45;7.88;;;2.40;89.00;;;;;;5081053;28;20059;-42
2022/03/09 06:58:35;;;;;;;11.48;8.50;;;2.50;89.00;;;;;;5069104;28;20028;-41
2022/03/09 07:01:01;;;;;;;11.50;7.82;;;2.50;89.10;;;;;;5081347;28;20490;-42
2022/03/09 07:03:28;;;;;;;10.82;7.15;;;2.50;89.10;;;;;;5065478;28;20060;-40
2022/03/09 07:05:54;;;;;;;11.50;7.22;;;2.60;89.10;;;;;;5077587;28;20055;-41
2022/03/09 07:08:20;;;;;;;11.07;6.90;;;2.60;89.00;;;;;;5069282;28;20024;-43
2022/03/09 07:10:46;;;;;;;9.77;6.25;;;2.60;88.90;;;;;;5075781;28;20051;-42
2022/03/09 07:13:12;;;;;;;9.45;6.07;;;2.60;88.90;;;;;;5072778;28;20096;-42
2022/03/09 07:15:38;;;;;;;8.52;5.70;;;2.60;88.90;;;;;;5072571;28;20058;-42
2022/03/09 07:18:04;;;;;;;8.60;6.55;;;2.70;89.10;;;;;;5074231;28;20032;-42
2022/03/09 07:20:29;;;;;;;8.23;5.82;;;2.70;89.10;;;;;;5070616;28;20025;-42
2022/03/09 07:22:55;;;;;;;7.75;6.00;;;2.80;89.00;;;;;;5076769;28;20033;-41
2022/03/09 07:25:21;;;;;;;9.98;6.38;;;2.80;88.90;;;;;;5069474;28;20467;-42
2022/03/09 07:27:46;;;;;;;8.43;5.90;;;2.90;88.90;;;;;;5078279;28;20023;-39
2022/03/09 07:30:12;;;;;;;9.02;5.60;;;2.90;88.90;;;;;;5069403;28;20020;-42
2022/03/09 07:32:38;;;;;;;8.45;5.85;;;3.00;88.80;;;;;;5075739;28;20043;-42
2022/03/09 07:35:05;;;;;;;8.13;5.97;;;3.00;88.80;;;;;;5085988;28;20020;-43
2022/03/09 07:37:30;;;;;;;10.88;6.40;;;3.10;88.80;;;;;;5072380;28;20017;-42
2022/03/09 07:39:55;;;;;;;8.15;5.80;;;3.10;88.80;;;;;;5086390;28;20422;-40
2022/03/09 07:42:21;;;;;;;7.97;5.88;;;3.10;88.80;;;;;;5073515;28;20035;-41
2022/03/09 07:44:47;;;;;;;7.57;5.93;;;3.20;88.90;;;;;;5095991;28;20034;-39
2022/03/09 07:47:13;;;;;;;8.50;6.13;;;3.20;88.80;;;;;;5088484;28;20024;-44
2022/03/09 07:49:38;;;;;;;10.25;6.88;;;3.30;88.80;;;;;;5068203;28;20116;-41
2022/03/09 07:52:05;;;;;;;11.82;6.63;;;3.40;88.80;;;;;;5081031;28;20153;-43
2022/03/09 07:54:31;;;;;;;10.50;7.22;;;3.40;88.80;;;;;;5091164;28;20105;-40
2022/03/09 07:56:56;;;;;;;9.63;6.63;;;3.40;88.80;;;;;;5081154;28;20130;-43
2022/03/09 07:59:22;;;;;;;9.13;6.85;;;3.50;88.80;;;;;;5077996;28;20388;-43
2022/03/09 08:01:52;;;;;;;9.35;6.15;;;3.50;88.60;;;;;;5083368;28;20106;-40
2022/03/09 08:04:22;;;;;;;8.10;5.93;;;3.60;88.60;;;;;;5075787;28;20099;-42
2022/03/09 08:06:49;;;;;;;9.23;6.18;;;3.60;88.60;;;;;;5083085;28;20020;-42
2022/03/09 08:09:18;;;;;;;10.43;6.20;;;3.70;88.50;;;;;;5074785;28;20089;-41
2022/03/09 08:11:45;;;;;;;11.70;7.10;;;3.70;88.50;;;;;;5083060;28;20036;-42
2022/03/09 08:14:10;;;;;;;11.02;6.65;;;3.80;88.70;;;;;;5074322;28;20027;-42
2022/03/09 08:16:36;;;;;;;10.10;7.10;;;3.80;88.40;;;;;;5085770;28;20646;-40
2022/03/09 08:19:02;;;;;;;8.93;6.90;;;3.90;88.40;;;;;;5071702;28;20099;-41
2022/03/09 08:21:28;;;;;;;11.05;7.00;;;3.90;88.40;;;;;;5086483;28;20027;-40
2022/03/09 08:23:56;;;;;;;10.10;6.60;;;4.00;88.50;;;;;;5071640;28;20025;-42
2022/03/09 08:26:22;;;;;;;11.95;7.05;;;4.00;88.40;;;;;;5085028;28;20034;-41
2022/03/09 08:28:48;;;;;;;12.88;6.93;;;4.10;88.50;;;;;;5071864;28;20063;-41
2022/03/09 08:31:13;;;;;;;11.23;7.65;;;4.10;88.30;;;;;;5084194;28;20055;-42
2022/03/09 08:33:39;;;;;;;8.30;6.75;;;4.10;88.30;;;;;;5075258;28;20580;-42
2022/03/09 08:36:05;;;;;;;9.05;6.20;;;4.20;88.30;;;;;;5081227;28;20039;-41
2022/03/09 08:38:31;;;;;;;11.70;7.38;;;4.20;88.30;;;;;;5079250;28;20021;-43
2022/03/09 08:40:57;;;;;;;9.57;6.90;;;4.30;88.30;;;;;;5080130;28;20039;-42
2022/03/09 08:43:22;;;;;;;10.27;6.80;;;4.40;88.30;;;;;;5082338;28;20135;-42
2022/03/09 08:45:48;;;;;;;9.15;7.00;;;4.40;88.30;;;;;;5076657;28;20032;-42
2022/03/09 08:48:14;;;;;;;9.27;7.07;;;4.50;88.30;;;;;;5083195;28;20319;-42
2022/03/09 08:50:39;;;;;;;11.40;7.15;;;4.50;88.30;;;;;;5076064;28;20036;-42
2022/03/09 08:53:05;;;;;;;10.25;6.70;;;4.60;88.30;;;;;;5104255;28;20111;-43
2022/03/09 08:55:30;;;;;;;10.00;7.35;;;4.60;88.20;;;;;;5076597;28;20052;-41
2022/03/09 08:57:56;;;;;;;8.77;6.47;;;4.70;88.30;;;;;;5064914;28;20024;-40
2022/03/09 09:00:22;;;;;;;11.35;7.30;;;4.70;88.30;;;;;;5077344;28;20039;-42
2022/03/09 09:02:48;;;;;;;12.20;7.20;;;4.80;88.30;;;;;;5063866;28;20027;-39
2022/03/09 09:05:14;;;;;;;10.23;6.57;;;4.90;88.30;;;;;;5078265;28;20032;-42
2022/03/09 09:07:39;;;;;;;9.77;7.45;;;4.90;88.30;;;;;;5064630;28;20111;-43
2022/03/09 09:10:06;;;;;;;12.02;7.45;;;5.00;88.20;;;;;;5074726;28;20119;-40
2022/03/09 09:12:31;;;;;;;10.40;7.05;;;5.10;88.30;;;;;;5067427;28;20027;-42
2022/03/09 09:14:57;;;;;;;9.65;6.55;;;5.10;88.20;;;;;;5077484;28;20020;-42
2022/03/09 09:17:22;;;;;;;10.80;7.35;;;5.20;88.20;;;;;;5071546;28;20029;-42
2022/03/09 09:19:51;;;;;;;10.75;7.18;;;5.30;88.20;;;;;;5069816;28;20024;-42
2022/03/09 09:22:17;;;;;;;11.00;7.78;;;5.40;88.10;;;;;;5071181;28;20043;-40
2022/03/09 09:24:43;;;;;;;10.70;7.15;;;5.50;88.10;;;;;;5067472;28;20021;-41
2022/03/09 09:27:08;;;;;;;9.88;7.03;;;5.50;88.00;;;;;;5074266;28;20123;-40
2022/03/09 09:29:34;;;;;;;7.95;6.15;;;5.60;87.90;;;;;;5065399;28;20082;-41
2022/03/09 09:32:00;;;;;;;9.38;6.55;;;5.70;87.80;;;;;;5075462;28;20037;-41
2022/03/09 09:34:26;;;;;;;9.02;6.78;;;5.70;87.80;;;;;;5066545;28;20033;-39
2022/03/09 09:36:52;;;;;;;9.07;6.00;;;5.80;87.70;;;;;;5074978;28;20024;-39
2022/03/09 09:39:18;;;;;;;8.55;6.72;;;5.90;87.70;;;;;;5064906;28;20029;-39
2022/03/09 09:41:47;;;;;;;10.05;7.15;;;5.90;87.50;;;;;;5076907;28;20040;-43
2022/03/09 09:44:13;;;;;;;9.98;7.38;;;6.00;87.30;;;;;;5064492;28;20028;-42
2022/03/09 09:46:40;;;;;;;11.02;7.65;;;6.10;87.10;;;;;;5076993;28;20475;-41
2022/03/09 09:49:08;;;;;;;15.35;8.20;;;6.20;86.90;;;;;;5064832;28;20058;-42
2022/03/09 09:51:37;;;;;;;10.73;7.50;;;6.30;86.60;;;;;;5074282;28;20032;-39
2022/03/09 09:54:03;;;;;;;9.95;7.75;;;6.40;86.60;;;;;;5064492;28;20115;-40
2022/03/09 09:56:30;;;;;;;9.45;7.18;;;6.40;86.60;;;;;;5073388;28;20055;-41
2022/03/09 09:58:56;;;;;;;11.20;7.70;;;6.50;86.60;;;;;;5066304;28;20033;-43
2022/03/09 10:01:22;;;;;;;12.82;7.68;;;6.60;86.70;;;;;;5071170;28;20067;-39
2022/03/09 10:03:47;;;;;;;9.95;8.05;;;6.60;87.30;;;;;;5070043;28;20492;-40
2022/03/09 10:06:13;;;;;;;11.75;8.48;;;6.70;86.70;;;;;;5068628;28;20024;-42
2022/03/09 10:08:39;;;;;;;10.38;7.95;;;6.70;86.60;;;;;;5071944;28;20020;-38
2022/03/09 10:11:05;;;;;;;9.63;7.65;;;6.80;86.60;;;;;;5065332;28;20032;-39
2022/03/09 10:13:33;;;;;;;9.13;6.90;;;6.80;86.60;;;;;;5075125;28;20028;-42
2022/03/09 10:16:15;;;;;;;10.55;7.15;;;6.90;86.40;;;;;;5065696;28;20379;-42
2022/03/09 10:18:56;;;;;;;8.82;7.28;;;7.00;86.30;;;;;;5072899;28;20063;-41
2022/03/09 10:21:26;;;;;;;8.57;6.70;;;7.10;86.20;;;;;;5083025;28;20027;-40
2022/03/09 10:24:03;;;;;;;10.05;6.97;;;7.10;86.10;;;;;;5073479;28;20096;-42
2022/03/09 10:26:45;;;;;;;8.50;6.50;;;7.20;86.10;;;;;;5082452;28;20065;-42
2022/03/09 10:29:13;;;;;;;7.80;6.05;;;7.20;86.00;;;;;;5075535;28;20039;-41
2022/03/09 10:31:40;;;;;;;9.32;6.32;;;7.30;86.00;;;;;;5081820;28;20483;-43
2022/03/09 10:34:07;;;;;;;9.15;6.22;;;7.40;85.80;;;;;;5071533;28;20096;-43
2022/03/09 10:36:33;;;;;;;10.45;7.53;;;7.40;85.60;;;;;;5083144;28;20024;-43
2022/03/09 10:39:12;;;;;;;8.85;6.40;;;7.50;85.40;;;;;;5070929;28;20024;-42
2022/03/09 10:41:38;;;;;;;8.70;6.38;;;7.60;85.30;;;;;;5082180;28;20052;-41
2022/03/09 10:44:04;;;;;;;7.47;6.13;;;7.70;85.20;;;;;;5072790;28;20455;-41
2022/03/09 10:46:44;;;;;;;9.27;6.68;;;7.70;85.00;;;;;;5083733;28;20131;-40
2022/03/09 10:49:12;;;;;;;8.57;6.60;;;7.80;84.90;;;;;;5072821;28;20033;-46
2022/03/09 10:51:49;;;;;;;10.25;6.95;;;7.90;84.60;;;;;;5083783;28;20485;-40
2022/03/09 10:54:28;;;;;;;10.55;7.15;;;7.90;84.40;;;;;;5071377;28;20035;-41
2022/03/09 10:57:06;;;;;;;8.77;6.95;;;8.00;84.30;;;;;;5084333;28;20140;-42
2022/03/09 10:59:49;;;;;;;8.77;7.03;;;8.10;84.20;;;;;;5072273;28;20066;-42
2022/03/09 11:02:16;;;;;;;;;;;8.10;84.00;;;;;;5083174;28;20190;-43
2022/03/09 11:04:42;;;;;;;9.90;6.82;;;8.20;83.70;;;;;;5072232;28;19994;-42
2022/03/09 11:07:09;;;;;;;9.57;7.53;;;8.20;83.50;;;;;;5083995;28;20725;-39
2022/03/09 11:09:36;;;;;;;8.65;6.57;;;8.30;83.50;;;;;;5070104;28;20078;-39
2022/03/09 11:12:02;;;;;;;9.82;6.60;;;8.40;83.50;;;;;;5085626;28;20058;-43
2022/03/09 11:14:29;;;;;;;11.07;7.70;;;8.40;83.30;;;;;;5074059;28;20483;-41
2022/03/09 11:17:00;;;;;;;11.55;8.40;;;8.50;83.20;;;;;;5085869;28;20066;-41
2022/03/09 11:19:26;;;;;;;12.77;9.35;;;8.60;82.80;;;;;;5091194;28;20036;-42
2022/03/09 11:21:52;;;;;;;13.95;8.00;;;8.70;82.80;;;;;;5067300;28;20036;-41
2022/03/09 11:24:19;;;;;;;11.63;8.10;;;8.80;82.60;;;;;;5089336;28;20032;-41
2022/03/09 11:26:51;;;;;;;10.45;8.00;;;8.80;82.50;;;;;;5090742;28;20101;-43
2022/03/09 11:29:28;;;;;;;11.27;7.47;;;8.90;82.40;;;;;;5078841;28;20037;-40
2022/03/09 11:31:54;;;;;;;10.45;7.53;;;9.00;82.30;;;;;;5082122;28;20515;-43
2022/03/09 11:34:48;;;;;;;12.43;7.68;;;9.00;82.20;;;;;;5080357;28;20033;-42
2022/03/09 11:37:15;;;;;;;9.70;7.30;;;9.10;82.30;;;;;;5081406;28;20028;-43
2022/03/09 11:39:47;;;;;;;12.27;8.60;;;9.10;82.10;;;;;;5078555;28;20024;-42
2022/03/09 11:42:21;;;;;;;12.80;9.18;;;9.20;81.60;;;;;;5082050;28;20066;-40
2022/03/09 11:44:52;;;;;;;11.27;8.57;;;9.20;81.30;;;;;;5078596;28;20127;-41
2022/03/09 11:47:18;;;;;;;15.52;9.18;;;9.30;81.20;;;;;;5081095;28;20551;-42
2022/03/09 11:49:49;;;;;;;10.63;8.13;;;9.40;81.20;;;;;;5074664;28;20083;-43
2022/03/09 11:52:24;;;;;;;11.73;8.25;;;9.50;81.20;;;;;;5073490;28;20047;-41
2022/03/09 11:54:55;;;;;;;14.05;8.55;;;9.50;81.00;;;;;;5070233;28;20058;-42
2022/03/09 11:57:41;;;;;;;12.63;9.35;;;9.60;80.80;;;;;;5072926;28;20036;-42
2022/03/09 12:00:12;;;;;;;12.98;8.60;;;9.60;80.40;;;;;;5070085;28;20374;-42
2022/03/09 12:02:56;;;;;;;15.27;9.43;;;9.70;80.30;;;;;;5072686;28;20063;-42
2022/03/09 12:05:25;;;;;;;11.82;7.88;;;9.80;80.30;;;;;;5071212;28;20094;-43
2022/03/09 12:07:57;;;;;;;13.75;9.05;;;9.90;80.30;;;;;;5071713;28;20048;-42
2022/03/09 12:10:49;;;;;;;12.65;9.27;;;9.90;80.30;;;;;;5071080;28;20046;-40
2022/03/09 12:13:19;;;;;;;12.73;9.27;;;10.00;80.10;;;;;;5070445;28;20058;-40
2022/03/09 12:15:59;;;;;;;13.80;8.77;;;10.00;79.90;;;;;;5071737;28;20026;-41
2022/03/09 12:18:33;;;;;;;11.80;8.30;;;10.00;79.90;;;;;;5069512;28;20043;-42
2022/03/09 12:20:59;;;;;;;12.10;9.15;;;10.10;79.90;;;;;;5072440;28;20048;-42
2022/03/09 12:23:24;;;;;;;14.05;9.65;;;10.10;79.50;;;;;;5070823;28;20542;-42
2022/03/09 12:25:50;;;;;;;14.20;9.65;;;10.20;78.90;;;;;;5068495;28;20027;-42
2022/03/09 12:28:39;;;;;;;10.90;8.40;;;10.20;78.70;;;;;;5074687;28;20043;-44
2022/03/09 12:31:20;;;;;;;13.23;9.40;;;10.30;78.80;;;;;;5061361;28;20071;-43
2022/03/09 12:33:51;;;;;;;11.10;8.32;;;10.40;78.80;;;;;;5070109;28;20182;-43
2022/03/09 12:36:24;;;;;;;12.63;9.18;;;10.40;78.60;;;;;;5070360;28;20027;-42
2022/03/09 12:38:53;;;;;;;14.05;9.68;;;10.50;78.50;;;;;;5070984;28;20030;-43
2022/03/09 12:41:29;;;;;;;13.65;9.95;;;10.50;78.50;;;;;;5068995;28;20234;-42
2022/03/09 12:44:09;;;;;;;15.57;9.85;;;10.60;78.10;;;;;;5072054;28;20131;-43
2022/03/09 12:46:38;;;;;;;15.18;10.68;;;10.70;77.90;;;;;;5068582;28;20521;-40
2022/03/09 12:49:06;;;;;;;15.25;9.93;;;10.70;77.60;;;;;;5072379;28;20028;-41
2022/03/09 12:51:33;;;;;;;14.35;10.15;;;10.70;77.50;;;;;;5066784;28;20577;-42